createdAt,value
2016-12-06T00:01:37.363Z,97.96
2016-12-06T00:03:26.726Z,97.86
2016-12-06T00:04:08.436Z,98.24
2016-12-06T00:04:50.025Z,97.86
2016-12-06T00:07:05.354Z,97.81
2016-12-06T00:07:47.006Z,97.86
2016-12-06T00:08:28.395Z,97.96
2016-12-06T00:09:09.977Z,97.58
2016-12-06T00:09:51.730Z,98.05
2016-12-06T00:11:51.522Z,97.86
2016-12-06T00:12:32.948Z,97.96
2016-12-06T00:13:14.454Z,97.86
2016-12-06T00:13:56.158Z,97.77
2016-12-06T00:14:37.947Z,98.14
2016-12-06T00:15:19.520Z,97.77
2016-12-06T00:16:01.243Z,97.77
2016-12-06T00:16:42.948Z,97.86
2016-12-06T00:17:24.574Z,97.77
2016-12-06T00:18:06.129Z,97.96
2016-12-06T00:18:47.777Z,97.58
2016-12-06T00:19:29.191Z,97.96
2016-12-06T00:21:18.633Z,97.58
2016-12-06T00:22:00.356Z,97.96
2016-12-06T00:22:42.007Z,97.58
2016-12-06T00:23:23.728Z,97.96
2016-12-06T00:24:05.525Z,97.67
2016-12-06T00:24:47.234Z,97.96
2016-12-06T00:25:28.878Z,97.86
2016-12-06T00:26:10.245Z,97.77
2016-12-06T00:26:51.943Z,97.96
2016-12-06T00:27:33.457Z,97.77
2016-12-06T00:29:22.794Z,97.58
2016-12-06T00:30:04.395Z,97.77
2016-12-06T00:30:46.078Z,97.86
2016-12-06T00:31:27.730Z,97.77
2016-12-06T00:32:09.440Z,97.67
2016-12-06T00:32:51.079Z,97.58
2016-12-06T00:35:06.509Z,97.77
2016-12-06T00:37:06.423Z,97.48
2016-12-06T00:37:47.878Z,97.77
2016-12-06T00:38:29.667Z,97.96
2016-12-06T00:39:11.408Z,97.77
2016-12-06T00:41:26.789Z,97.77
2016-12-06T00:43:16.057Z,98.24
2016-12-06T00:43:57.707Z,98.14
2016-12-06T00:44:39.538Z,97.86
2016-12-06T00:45:21.217Z,97.77
2016-12-06T00:46:02.931Z,97.58
2016-12-06T00:46:44.690Z,98.14
2016-12-06T00:47:26.419Z,97.96
2016-12-06T00:48:08.076Z,98.14
2016-12-06T00:48:49.830Z,97.77
2016-12-06T00:49:31.547Z,97.86
2016-12-06T00:50:13.339Z,97.96
2016-12-06T00:50:55.106Z,98.52
2016-12-06T00:51:36.800Z,97.96
2016-12-06T00:52:18.553Z,98.52
2016-12-06T00:53:00.316Z,97.96
2016-12-06T00:53:42.068Z,98.14
2016-12-06T00:54:23.822Z,97.86
2016-12-06T00:55:05.427Z,97.96
2016-12-06T00:55:47.194Z,98.05
2016-12-06T00:56:28.920Z,98.71
2016-12-06T00:57:10.677Z,98.71
2016-12-06T00:57:52.428Z,98.52
2016-12-06T00:58:34.189Z,98.71
2016-12-06T00:59:15.929Z,98.99
2016-12-06T00:59:57.673Z,98.8
2016-12-06T01:00:39.374Z,98.52
2016-12-06T01:01:20.771Z,98.8
2016-12-06T01:02:02.342Z,98.71
2016-12-06T01:02:43.972Z,98.71
2016-12-06T01:03:25.600Z,98.52
2016-12-06T01:05:40.903Z,98.61
2016-12-06T01:06:22.639Z,98.8
2016-12-06T01:07:04.384Z,98.99
2016-12-06T01:07:46.099Z,98.52
2016-12-06T01:08:27.336Z,98.8
2016-12-06T01:09:09.065Z,98.61
2016-12-06T01:09:50.748Z,98.99
2016-12-06T01:10:32.298Z,98.71
2016-12-06T01:11:13.979Z,98.61
2016-12-06T01:11:55.556Z,98.52
2016-12-06T01:12:37.097Z,98.52
2016-12-06T01:13:18.783Z,98.52
2016-12-06T01:14:00.497Z,98.61
2016-12-06T01:14:42.253Z,98.71
2016-12-06T01:15:23.857Z,98.71
2016-12-06T01:16:05.538Z,98.99
2016-12-06T01:16:47.266Z,99.18
2016-12-06T01:17:28.987Z,98.52
2016-12-06T01:18:10.602Z,98.52
2016-12-06T01:20:05.339Z,98.52
2016-12-06T01:20:47.032Z,98.9
2016-12-06T01:21:28.701Z,98.24
2016-12-06T01:22:10.386Z,98.99
2016-12-06T01:24:04.999Z,98.33
2016-12-06T01:24:46.753Z,98.71
2016-12-06T01:25:28.263Z,98.8
2016-12-06T01:26:09.777Z,98.71
2016-12-06T01:26:51.625Z,98.8
2016-12-06T01:28:41.057Z,99.18
2016-12-06T01:29:22.803Z,98.61
2016-12-06T01:31:43.590Z,98.8
2016-12-06T01:33:58.809Z,98.9
2016-12-06T01:34:40.449Z,98.71
2016-12-06T01:35:22.196Z,98.8
2016-12-06T01:36:03.871Z,98.99
2016-12-06T01:36:45.616Z,98.99
2016-12-06T01:37:27.309Z,98.71
2016-12-06T01:38:08.939Z,98.9
2016-12-06T01:40:03.715Z,98.9
2016-12-06T01:40:45.454Z,98.71
2016-12-06T01:41:27.207Z,98.9
2016-12-06T01:42:08.787Z,99.08
2016-12-06T01:42:50.480Z,99.08
2016-12-06T01:43:32.173Z,98.71
2016-12-06T01:45:52.935Z,98.8
2016-12-06T01:46:34.564Z,98.9
2016-12-06T01:47:16.229Z,98.9
2016-12-06T01:47:58.040Z,98.9
2016-12-06T01:48:39.699Z,98.8
2016-12-06T01:49:21.289Z,98.71
2016-12-06T01:50:03.027Z,99.18
2016-12-06T01:50:44.811Z,99.18
2016-12-06T01:51:26.461Z,98.9
2016-12-06T01:52:08.108Z,98.99
2016-12-06T01:52:49.823Z,99.18
2016-12-06T01:54:39.291Z,99.08
2016-12-06T01:56:54.682Z,99.27
2016-12-06T01:57:36.166Z,98.71
2016-12-06T01:58:17.930Z,99.18
2016-12-06T01:58:59.655Z,98.8
2016-12-06T01:59:40.704Z,98.8
2016-12-06T02:00:21.243Z,99.08
2016-12-06T02:01:01.776Z,98.61
2016-12-06T02:01:42.319Z,98.99
2016-12-06T02:02:22.851Z,98.9
2016-12-06T02:03:03.376Z,98.99
2016-12-06T02:03:43.904Z,98.8
2016-12-06T02:04:24.430Z,98.99
2016-12-06T02:05:04.970Z,99.18
2016-12-06T02:05:45.502Z,98.8
2016-12-06T02:06:26.029Z,99.08
2016-12-06T02:07:06.559Z,99.08
2016-12-06T02:07:47.095Z,99.18
2016-12-06T02:08:27.652Z,99.18
2016-12-06T02:09:08.165Z,99.18
2016-12-06T02:09:48.686Z,98.99
2016-12-06T02:10:29.226Z,98.9
2016-12-06T02:11:09.759Z,98.99
2016-12-06T02:11:50.292Z,99.18
2016-12-06T02:12:30.826Z,99.27
2016-12-06T02:13:11.359Z,98.8
2016-12-06T02:13:51.885Z,99.27
2016-12-06T02:14:32.423Z,98.8
2016-12-06T02:15:12.964Z,98.99
2016-12-06T02:15:53.491Z,98.8
2016-12-06T02:16:34.027Z,99.08
2016-12-06T02:17:14.563Z,98.9
2016-12-06T02:17:55.095Z,98.8
2016-12-06T02:18:35.631Z,98.9
2016-12-06T02:19:16.167Z,98.71
2016-12-06T02:19:56.695Z,98.71
2016-12-06T02:20:37.230Z,99.08
2016-12-06T02:21:17.764Z,99.18
2016-12-06T02:21:58.327Z,98.71
2016-12-06T02:22:38.863Z,98.71
2016-12-06T02:23:19.392Z,98.8
2016-12-06T02:23:59.923Z,99.27
2016-12-06T02:24:40.461Z,98.8
2016-12-06T02:25:20.989Z,99.18
2016-12-06T02:26:01.526Z,99.18
2016-12-06T02:26:42.064Z,99.08
2016-12-06T02:27:22.592Z,98.99
2016-12-06T02:28:03.124Z,98.8
2016-12-06T02:28:43.652Z,99.18
2016-12-06T02:29:24.185Z,98.8
2016-12-06T02:30:04.716Z,98.8
2016-12-06T02:30:45.246Z,98.99
2016-12-06T02:31:25.775Z,98.99
2016-12-06T02:32:06.305Z,98.71
2016-12-06T02:32:46.841Z,98.61
2016-12-06T02:33:27.361Z,98.9
2016-12-06T02:34:07.894Z,98.9
2016-12-06T02:34:48.426Z,98.61
2016-12-06T02:35:28.954Z,98.9
2016-12-06T02:36:09.491Z,98.99
2016-12-06T02:36:50.025Z,98.71
2016-12-06T02:37:30.551Z,98.99
2016-12-06T02:38:11.079Z,98.9
2016-12-06T02:38:51.618Z,98.9
2016-12-06T02:39:32.151Z,98.9
2016-12-06T02:40:12.673Z,98.8
2016-12-06T02:40:53.202Z,99.08
2016-12-06T02:41:33.731Z,98.99
2016-12-06T02:42:14.264Z,98.99
2016-12-06T02:42:54.797Z,99.08
2016-12-06T02:43:35.331Z,98.99
2016-12-06T02:44:15.853Z,99.08
2016-12-06T02:44:56.391Z,99.18
2016-12-06T02:45:36.932Z,98.99
2016-12-06T02:46:17.461Z,99.08
2016-12-06T02:46:57.994Z,98.99
2016-12-06T02:47:38.530Z,98.71
2016-12-06T02:48:19.064Z,98.9
2016-12-06T02:48:59.599Z,98.8
2016-12-06T02:49:40.134Z,98.99
2016-12-06T02:50:20.664Z,98.8
2016-12-06T02:51:01.192Z,99.18
2016-12-06T02:51:41.726Z,98.71
2016-12-06T02:52:22.257Z,98.61
2016-12-06T02:53:02.786Z,98.71
2016-12-06T02:53:43.317Z,98.71
2016-12-06T02:54:23.846Z,98.9
2016-12-06T02:55:04.382Z,98.9
2016-12-06T02:55:44.913Z,98.61
2016-12-06T02:56:25.439Z,98.9
2016-12-06T02:57:05.968Z,98.9
2016-12-06T02:57:46.502Z,98.99
2016-12-06T02:58:27.033Z,98.71
2016-12-06T02:59:07.562Z,98.99
2016-12-06T02:59:48.102Z,98.9
2016-12-06T03:00:28.643Z,98.8
2016-12-06T03:01:09.164Z,98.9
2016-12-06T03:01:49.697Z,98.9
2016-12-06T03:02:30.233Z,98.9
2016-12-06T03:03:10.768Z,98.99
2016-12-06T03:03:51.305Z,98.8
2016-12-06T03:04:31.848Z,98.61
2016-12-06T03:05:12.363Z,98.71
2016-12-06T03:05:52.900Z,98.71
2016-12-06T03:06:33.441Z,98.71
2016-12-06T03:07:13.968Z,98.71
2016-12-06T03:07:54.496Z,98.8
2016-12-06T03:08:35.028Z,99.08
2016-12-06T03:09:15.570Z,98.8
2016-12-06T03:09:56.102Z,98.8
2016-12-06T03:10:36.638Z,99.08
2016-12-06T03:11:17.168Z,99.18
2016-12-06T03:11:57.702Z,99.27
2016-12-06T03:12:38.232Z,99.08
2016-12-06T03:13:18.765Z,99.18
2016-12-06T03:13:59.300Z,98.8
2016-12-06T03:14:39.826Z,98.99
2016-12-06T03:15:20.367Z,99.08
2016-12-06T03:16:00.901Z,99.08
2016-12-06T03:16:41.432Z,99.08
2016-12-06T03:17:21.965Z,98.8
2016-12-06T03:18:02.501Z,98.9
2016-12-06T03:18:43.036Z,98.9
2016-12-06T03:19:23.564Z,99.18
2016-12-06T03:20:04.098Z,99.56
2016-12-06T03:20:44.635Z,99.56
2016-12-06T03:21:25.169Z,99.84
2016-12-06T03:22:05.703Z,99.37
2016-12-06T03:22:46.229Z,99.37
2016-12-06T03:23:26.756Z,98.99
2016-12-06T03:24:07.296Z,98.99
2016-12-06T03:24:47.831Z,98.99
2016-12-06T03:25:28.363Z,98.9
2016-12-06T03:26:08.905Z,98.8
2016-12-06T03:26:49.416Z,99.08
2016-12-06T03:27:29.959Z,99.18
2016-12-06T03:28:10.488Z,98.8
2016-12-06T03:28:51.024Z,98.8
2016-12-06T03:29:31.556Z,99.08
2016-12-06T03:30:12.086Z,99.08
2016-12-06T03:30:52.625Z,99.18
2016-12-06T03:31:33.166Z,99.18
2016-12-06T03:32:13.690Z,98.99
2016-12-06T03:32:54.220Z,98.9
2016-12-06T03:33:34.754Z,98.9
2016-12-06T03:34:15.285Z,98.99
2016-12-06T03:34:55.814Z,98.9
2016-12-06T03:35:36.343Z,98.9
2016-12-06T03:36:16.885Z,98.99
2016-12-06T03:36:57.417Z,98.99
2016-12-06T03:37:37.942Z,99.27
2016-12-06T03:38:18.477Z,98.8
2016-12-06T03:38:59.017Z,98.9
2016-12-06T03:39:39.545Z,99.18
2016-12-06T03:40:20.081Z,99.08
2016-12-06T03:41:00.615Z,98.99
2016-12-06T03:41:41.150Z,99.08
2016-12-06T03:42:21.671Z,98.8
2016-12-06T03:43:02.205Z,98.9
2016-12-06T03:43:42.741Z,98.99
2016-12-06T03:44:23.264Z,98.9
2016-12-06T03:45:03.793Z,98.99
2016-12-06T03:45:44.328Z,98.99
2016-12-06T03:46:24.854Z,98.99
2016-12-06T03:47:05.378Z,98.99
2016-12-06T03:47:45.912Z,99.18
2016-12-06T03:48:26.446Z,99.18
2016-12-06T03:49:06.984Z,98.99
2016-12-06T03:49:47.514Z,99.08
2016-12-06T03:50:28.046Z,98.9
2016-12-06T03:51:08.573Z,99.37
2016-12-06T03:51:49.104Z,98.99
2016-12-06T03:52:29.638Z,98.8
2016-12-06T03:53:10.177Z,98.99
2016-12-06T03:53:50.704Z,98.9
2016-12-06T03:54:31.240Z,98.8
2016-12-06T03:55:11.775Z,98.8
2016-12-06T03:55:52.301Z,98.8
2016-12-06T03:56:32.827Z,98.99
2016-12-06T03:57:13.363Z,98.9
2016-12-06T03:57:53.897Z,98.99
2016-12-06T03:58:34.435Z,98.99
2016-12-06T03:59:14.967Z,99.18
2016-12-06T03:59:55.499Z,99.08
2016-12-06T04:00:36.029Z,98.99
2016-12-06T04:01:16.565Z,99.65
2016-12-06T04:01:57.102Z,99.37
2016-12-06T04:02:37.638Z,99.37
2016-12-06T04:03:18.172Z,98.8
2016-12-06T04:03:58.703Z,99.56
2016-12-06T04:04:39.235Z,99.65
2016-12-06T04:05:19.766Z,99.37
2016-12-06T04:06:00.297Z,99.37
2016-12-06T04:06:40.833Z,99.65
2016-12-06T04:07:21.357Z,99.37
2016-12-06T04:08:01.885Z,99.46
2016-12-06T04:08:42.418Z,99.84
2016-12-06T04:09:23.153Z,99.84
2016-12-06T04:10:03.686Z,99.37
2016-12-06T04:10:44.213Z,99.37
2016-12-06T04:11:24.762Z,98.8
2016-12-06T04:12:05.295Z,98.99
2016-12-06T04:12:45.882Z,98.9
2016-12-06T04:13:26.412Z,98.99
2016-12-06T04:14:06.951Z,99.37
2016-12-06T04:14:47.479Z,99.56
2016-12-06T04:15:28.015Z,99.65
2016-12-06T04:16:08.550Z,99.37
2016-12-06T04:16:49.088Z,99.46
2016-12-06T04:17:29.620Z,99.56
2016-12-06T04:18:10.159Z,99.84
2016-12-06T04:18:50.686Z,99.27
2016-12-06T04:19:31.211Z,99.84
2016-12-06T04:20:12.127Z,99.56
2016-12-06T04:20:52.761Z,99.37
2016-12-06T04:21:33.379Z,99.37
2016-12-06T04:22:13.988Z,99.65
2016-12-06T04:22:54.518Z,99.65
2016-12-06T04:23:35.191Z,99.65
2016-12-06T04:24:15.822Z,99.56
2016-12-06T04:24:56.362Z,99.56
2016-12-06T04:25:36.896Z,99.75
2016-12-06T04:26:17.496Z,99.84
2016-12-06T04:26:58.179Z,99.84
2016-12-06T04:27:38.876Z,99.75
2016-12-06T04:28:19.417Z,99.56
2016-12-06T04:28:59.950Z,99.37
2016-12-06T04:29:40.592Z,99.56
2016-12-06T04:30:21.129Z,99.75
2016-12-06T04:31:01.661Z,99.75
2016-12-06T04:31:42.189Z,99.56
2016-12-06T04:32:22.810Z,99.56
2016-12-06T04:33:03.346Z,99.56
2016-12-06T04:33:43.873Z,99.56
2016-12-06T04:34:24.394Z,99.65
2016-12-06T04:35:04.932Z,99.27
2016-12-06T04:35:45.583Z,99.56
2016-12-06T04:36:26.135Z,99.56
2016-12-06T04:37:06.667Z,99.56
2016-12-06T04:37:47.198Z,99.37
2016-12-06T04:38:27.732Z,99.37
2016-12-06T04:39:08.302Z,99.75
2016-12-06T04:39:49.003Z,99.27
2016-12-06T04:40:29.556Z,99.27
2016-12-06T04:41:10.085Z,99.75
2016-12-06T04:41:50.620Z,99.84
2016-12-06T04:42:31.162Z,99.56
2016-12-06T04:43:11.699Z,99.56
2016-12-06T04:43:52.231Z,99.56
2016-12-06T04:44:32.774Z,99.56
2016-12-06T04:45:13.310Z,99.37
2016-12-06T04:45:53.841Z,99.56
2016-12-06T04:46:34.381Z,99.94
2016-12-06T04:47:14.905Z,99.94
2016-12-06T04:47:55.435Z,99.56
2016-12-06T04:48:35.969Z,99.84
2016-12-06T04:49:16.500Z,99.56
2016-12-06T04:49:57.041Z,99.46
2016-12-06T04:53:15.053Z,99.75
2016-12-06T04:53:55.594Z,99.65
2016-12-06T04:54:36.131Z,99.46
2016-12-06T04:55:16.663Z,99.56
2016-12-06T04:55:57.200Z,99.37
2016-12-06T04:56:37.827Z,99.37
2016-12-06T04:57:18.354Z,99.75
2016-12-06T04:57:58.871Z,99.84
2016-12-06T04:58:39.419Z,99.75
2016-12-06T04:59:19.942Z,99.56
2016-12-06T05:00:00.472Z,99.56
2016-12-06T05:00:41.012Z,99.41
2016-12-06T05:01:21.592Z,99.56
2016-12-06T05:02:02.123Z,99.37
2016-12-06T05:02:42.654Z,99.79
2016-12-06T05:03:23.186Z,99.75
2016-12-06T05:04:03.718Z,99.84
2016-12-06T05:04:44.251Z,99.37
2016-12-06T05:05:25.405Z,99.75
2016-12-06T05:06:06.756Z,99.7
2016-12-06T05:06:47.292Z,99.79
2016-12-06T05:07:27.827Z,99.22
2016-12-06T05:08:08.362Z,99.84
2016-12-06T05:08:48.893Z,99.7
2016-12-06T05:09:29.653Z,99.51
2016-12-06T05:10:10.185Z,99.32
2016-12-06T05:10:50.711Z,99.7
2016-12-06T05:11:31.270Z,99.6
2016-12-06T05:12:11.804Z,99.99
2016-12-06T05:12:52.327Z,99.99
2016-12-06T05:13:32.859Z,99.99
2016-12-06T05:14:13.382Z,99.99
2016-12-06T05:14:53.912Z,99.99
2016-12-06T05:15:34.445Z,99.99
2016-12-06T05:16:14.977Z,99.99
2016-12-06T05:16:55.498Z,99.99
2016-12-06T05:17:36.030Z,99.99
2016-12-06T05:18:16.553Z,99.51
2016-12-06T05:18:57.087Z,99.51
2016-12-06T05:19:37.625Z,99.56
2016-12-06T05:20:18.156Z,99.88
2016-12-06T05:20:58.700Z,99.7
2016-12-06T05:21:39.220Z,99.99
2016-12-06T05:22:19.755Z,99.99
2016-12-06T05:23:00.291Z,99.99
2016-12-06T05:23:40.767Z,99.94
2016-12-06T05:24:21.252Z,99.99
2016-12-06T05:25:01.784Z,99.65
2016-12-06T05:25:42.271Z,99.99
2016-12-06T05:26:22.769Z,99.99
2016-12-06T05:27:03.268Z,99.99
2016-12-06T05:27:43.791Z,99.99
2016-12-06T05:28:24.305Z,99.99
2016-12-06T05:29:04.829Z,99.99
2016-12-06T05:29:45.366Z,99.99
2016-12-06T05:30:25.886Z,99.99
2016-12-06T05:31:06.394Z,99.99
2016-12-06T05:31:46.911Z,99.99
2016-12-06T05:32:27.403Z,99.99
2016-12-06T05:33:07.937Z,99.99
2016-12-06T05:33:48.460Z,99.99
2016-12-06T05:34:28.985Z,99.99
2016-12-06T05:35:09.441Z,99.99
2016-12-06T05:35:50.044Z,99.79
2016-12-06T05:36:30.554Z,99.79
2016-12-06T05:37:11.079Z,99.6
2016-12-06T05:37:51.598Z,99.6
2016-12-06T05:38:32.141Z,99.65
2016-12-06T05:39:12.609Z,99.79
2016-12-06T05:39:53.124Z,99.79
2016-12-06T05:40:33.650Z,99.94
2016-12-06T05:41:14.127Z,99.7
2016-12-06T05:43:29.294Z,99.99
2016-12-06T05:44:09.827Z,99.99
2016-12-06T05:44:50.366Z,99.99
2016-12-06T05:45:30.904Z,99.99
2016-12-06T05:46:11.436Z,99.99
2016-12-06T05:46:51.954Z,99.94
2016-12-06T05:47:32.536Z,99.99
2016-12-06T05:48:13.067Z,99.51
2016-12-06T05:48:53.587Z,99.99
2016-12-06T05:49:34.110Z,99.79
2016-12-06T05:50:14.679Z,99.99
2016-12-06T05:50:55.213Z,99.99
2016-12-06T05:51:35.722Z,99.99
2016-12-06T05:52:16.259Z,99.84
2016-12-06T05:52:56.780Z,99.79
2016-12-06T05:53:37.328Z,99.99
2016-12-06T05:54:17.839Z,99.99
2016-12-06T05:54:58.359Z,99.88
2016-12-06T05:55:38.887Z,99.94
2016-12-06T05:56:19.418Z,99.99
2016-12-06T05:56:59.943Z,99.99
2016-12-06T05:57:40.470Z,99.98
2016-12-06T05:58:20.996Z,99.7
2016-12-06T05:59:01.521Z,99.7
2016-12-06T05:59:42.051Z,99.99
2016-12-06T06:00:22.578Z,99.7
2016-12-06T06:01:03.112Z,99.51
2016-12-06T06:01:43.625Z,99.7
2016-12-06T06:02:24.149Z,99.99
2016-12-06T06:03:04.678Z,99.7
2016-12-06T06:03:45.202Z,99.99
2016-12-06T06:04:25.738Z,99.88
2016-12-06T06:05:06.274Z,99.88
2016-12-06T06:05:46.813Z,99.88
2016-12-06T06:06:27.348Z,99.88
2016-12-06T06:07:07.876Z,99.88
2016-12-06T06:07:48.411Z,99.32
2016-12-06T06:08:28.934Z,99.98
2016-12-06T06:09:09.479Z,99.99
2016-12-06T06:09:50.010Z,99.94
2016-12-06T06:10:30.544Z,99.99
2016-12-06T06:11:11.090Z,99.94
2016-12-06T06:11:51.624Z,99.88
2016-12-06T06:12:32.154Z,99.99
2016-12-06T06:13:12.680Z,99.84
2016-12-06T06:15:06.686Z,99.84
2016-12-06T06:15:47.221Z,99.84
2016-12-06T06:16:27.744Z,99.79
2016-12-06T06:17:08.260Z,99.94
2016-12-06T06:17:48.783Z,99.84
2016-12-06T06:18:29.306Z,99.99
2016-12-06T06:19:09.833Z,99.99
2016-12-06T06:19:50.354Z,99.99
2016-12-06T06:20:30.893Z,99.75
2016-12-06T06:21:11.433Z,99.79
2016-12-06T06:21:51.961Z,99.7
2016-12-06T06:22:32.490Z,99.99
2016-12-06T06:23:13.023Z,99.98
2016-12-06T06:23:53.545Z,99.99
2016-12-06T06:24:34.068Z,99.99
2016-12-06T06:25:14.599Z,99.51
2016-12-06T06:25:55.114Z,99.7
2016-12-06T06:26:35.646Z,99.84
2016-12-06T06:27:16.179Z,99.98
2016-12-06T06:27:56.716Z,99.7
2016-12-06T06:28:37.244Z,99.98
2016-12-06T06:29:17.772Z,99.98
2016-12-06T06:29:58.308Z,99.99
2016-12-06T06:30:38.844Z,99.84
2016-12-06T06:31:19.376Z,99.88
2016-12-06T06:31:59.912Z,99.99
2016-12-06T06:32:40.439Z,99.98
2016-12-06T06:33:20.978Z,99.99
2016-12-06T06:34:01.510Z,99.99
2016-12-06T06:34:42.045Z,99.7
2016-12-06T06:35:22.588Z,99.79
2016-12-06T06:36:03.126Z,99.79
2016-12-06T06:36:43.659Z,99.98
2016-12-06T06:37:24.191Z,99.7
2016-12-06T06:38:04.714Z,99.99
2016-12-06T06:38:45.262Z,99.79
2016-12-06T06:39:25.793Z,99.88
2016-12-06T06:40:06.318Z,99.88
2016-12-06T06:40:46.843Z,99.99
2016-12-06T06:41:27.378Z,99.98
2016-12-06T06:42:07.913Z,99.79
2016-12-06T06:42:48.445Z,99.88
2016-12-06T06:43:28.974Z,99.98
2016-12-06T06:44:09.506Z,99.79
2016-12-06T06:44:50.031Z,99.94
2016-12-06T06:45:30.556Z,99.98
2016-12-06T06:46:12.718Z,99.99
2016-12-06T06:46:53.251Z,99.99
2016-12-06T06:47:33.779Z,99.88
2016-12-06T06:48:14.290Z,99.99
2016-12-06T06:48:54.826Z,99.99
2016-12-06T06:49:35.359Z,99.7
2016-12-06T06:50:15.885Z,99.88
2016-12-06T06:50:56.414Z,99.88
2016-12-06T06:51:36.946Z,99.88
2016-12-06T06:52:17.483Z,99.6
2016-12-06T06:52:58.018Z,99.98
2016-12-06T06:53:38.551Z,99.99
2016-12-06T06:54:19.066Z,99.98
2016-12-06T06:54:59.597Z,99.88
2016-12-06T06:55:40.132Z,99.7
2016-12-06T06:56:20.664Z,99.99
2016-12-06T06:57:01.187Z,99.99
2016-12-06T06:57:41.729Z,99.99
2016-12-06T06:58:22.237Z,99.7
2016-12-06T06:59:02.763Z,99.98
2016-12-06T06:59:43.310Z,99.98
2016-12-06T07:00:23.877Z,99.88
2016-12-06T07:01:04.420Z,99.7
2016-12-06T07:01:44.938Z,99.98
2016-12-06T07:02:25.465Z,99.98
2016-12-06T07:03:05.999Z,99.98
2016-12-06T07:03:46.533Z,99.6
2016-12-06T07:04:27.049Z,99.98
2016-12-06T07:05:07.588Z,99.88
2016-12-06T07:05:48.123Z,99.99
2016-12-06T07:06:28.646Z,99.99
2016-12-06T07:07:09.183Z,99.88
2016-12-06T07:07:49.703Z,99.99
2016-12-06T07:08:30.244Z,99.79
2016-12-06T07:09:10.768Z,99.98
2016-12-06T07:09:51.301Z,99.99
2016-12-06T07:10:31.850Z,99.99
2016-12-06T07:11:12.392Z,99.99
2016-12-06T07:11:52.920Z,99.88
2016-12-06T07:12:33.437Z,99.99
2016-12-06T07:13:13.971Z,99.99
2016-12-06T07:13:54.485Z,99.99
2016-12-06T07:14:35.018Z,99.99
2016-12-06T07:15:15.538Z,99.99
2016-12-06T07:15:56.072Z,99.99
2016-12-06T07:16:36.600Z,99.99
2016-12-06T07:17:17.140Z,99.99
2016-12-06T07:17:57.640Z,99.98
2016-12-06T07:18:38.157Z,99.79
2016-12-06T07:19:18.690Z,99.88
2016-12-06T07:19:59.215Z,99.79
2016-12-06T07:20:39.723Z,99.98
2016-12-06T07:21:20.253Z,99.88
2016-12-06T07:22:00.839Z,99.99
2016-12-06T07:22:41.360Z,99.88
2016-12-06T07:23:21.895Z,99.98
2016-12-06T07:24:02.426Z,99.7
2016-12-06T07:24:42.953Z,99.79
2016-12-06T07:25:23.491Z,99.7
2016-12-06T07:26:04.018Z,99.7
2016-12-06T07:26:44.555Z,99.88
2016-12-06T07:27:25.090Z,99.7
2016-12-06T07:28:05.650Z,99.51
2016-12-06T07:28:46.150Z,99.99
2016-12-06T07:29:26.681Z,99.99
2016-12-06T07:30:07.216Z,99.99
2016-12-06T07:30:47.748Z,99.99
2016-12-06T07:31:28.279Z,99.88
2016-12-06T07:32:08.824Z,99.99
2016-12-06T07:32:49.354Z,99.99
2016-12-06T07:33:29.911Z,99.98
2016-12-06T07:34:10.414Z,99.88
2016-12-06T07:34:50.936Z,99.99
2016-12-06T07:35:31.456Z,99.99
2016-12-06T07:36:11.991Z,99.99
2016-12-06T07:36:52.533Z,99.88
2016-12-06T07:37:33.085Z,99.99
2016-12-06T07:38:13.613Z,99.99
2016-12-06T07:38:54.140Z,99.99
2016-12-06T07:39:34.665Z,99.99
2016-12-06T07:40:15.183Z,99.99
2016-12-06T07:40:55.718Z,99.99
2016-12-06T07:41:36.248Z,99.88
2016-12-06T07:42:16.783Z,99.51
2016-12-06T07:42:57.302Z,99.98
2016-12-06T07:43:37.827Z,99.99
2016-12-06T07:44:18.359Z,99.99
2016-12-06T07:44:58.891Z,99.7
2016-12-06T07:45:39.438Z,99.79
2016-12-06T07:46:20.004Z,99.7
2016-12-06T07:47:00.546Z,99.7
2016-12-06T07:47:41.082Z,99.99
2016-12-06T07:48:21.597Z,99.7
2016-12-06T07:49:02.140Z,99.79
2016-12-06T07:49:42.682Z,99.7
2016-12-06T07:50:23.242Z,99.79
2016-12-06T07:51:03.760Z,99.99
2016-12-06T07:51:44.316Z,99.99
2016-12-06T07:52:24.849Z,99.99
2016-12-06T07:53:05.386Z,99.99
2016-12-06T07:53:45.929Z,99.99
2016-12-06T07:54:26.450Z,99.98
2016-12-06T07:55:06.995Z,99.99
2016-12-06T07:55:47.531Z,99.99
2016-12-06T07:56:28.066Z,99.99
2016-12-06T07:57:08.602Z,99.99
2016-12-06T07:57:49.137Z,99.99
2016-12-06T07:58:29.669Z,99.51
2016-12-06T07:59:10.198Z,99.98
2016-12-06T07:59:50.737Z,99.79
2016-12-06T08:01:30.829Z,99.7
2016-12-06T08:02:11.403Z,99.99
2016-12-06T08:02:51.931Z,99.99
2016-12-06T08:03:32.478Z,99.99
2016-12-06T08:04:13.001Z,99.99
2016-12-06T08:04:53.532Z,99.99
2016-12-06T08:05:34.055Z,99.88
2016-12-06T08:06:14.572Z,99.99
2016-12-06T08:06:55.106Z,99.99
2016-12-06T08:07:35.632Z,99.94
2016-12-06T08:08:16.172Z,99.99
2016-12-06T08:08:56.704Z,99.99
2016-12-06T08:09:37.227Z,99.99
2016-12-06T08:10:17.757Z,99.99
2016-12-06T08:10:58.282Z,99.94
2016-12-06T08:11:38.808Z,99.84
2016-12-06T08:12:19.339Z,99.51
2016-12-06T08:12:59.843Z,99.75
2016-12-06T08:13:40.381Z,99.51
2016-12-06T08:14:20.921Z,99.94
2016-12-06T08:15:01.475Z,99.99
2016-12-06T08:15:42.012Z,99.84
2016-12-06T08:16:22.530Z,99.84
2016-12-06T08:17:03.062Z,99.65
2016-12-06T08:17:43.608Z,99.84
2016-12-06T08:18:24.138Z,99.99
2016-12-06T08:19:04.654Z,99.65
2016-12-06T08:19:45.178Z,99.79
2016-12-06T08:20:25.721Z,99.94
2016-12-06T08:21:06.281Z,99.75
2016-12-06T08:21:46.831Z,99.65
2016-12-06T08:22:27.426Z,99.65
2016-12-06T08:23:07.970Z,99.99
2016-12-06T08:23:48.504Z,99.65
2016-12-06T08:24:29.034Z,99.75
2016-12-06T08:25:09.581Z,99.56
2016-12-06T08:25:50.133Z,99.37
2016-12-06T08:26:30.658Z,99.56
2016-12-06T08:27:11.202Z,99.84
2016-12-06T08:27:51.729Z,99.65
2016-12-06T08:28:32.266Z,99.56
2016-12-06T08:29:12.803Z,99.75
2016-12-06T08:29:53.334Z,99.37
2016-12-06T08:30:33.868Z,99.65
2016-12-06T08:31:14.383Z,99.56
2016-12-06T08:31:54.908Z,99.56
2016-12-06T08:32:35.425Z,99.46
2016-12-06T08:33:15.961Z,99.84
2016-12-06T08:33:56.499Z,99.65
2016-12-06T08:34:37.028Z,99.56
2016-12-06T08:35:17.563Z,99.65
2016-12-06T08:35:58.085Z,98.99
2016-12-06T08:36:38.615Z,98.9
2016-12-06T08:37:19.159Z,99.08
2016-12-06T08:37:59.677Z,99.08
2016-12-06T08:38:40.196Z,99.18
2016-12-06T08:39:20.722Z,99.18
2016-12-06T08:40:01.255Z,98.71
2016-12-06T08:40:41.789Z,98.61
2016-12-06T08:41:22.338Z,98.8
2016-12-06T08:42:02.878Z,98.8
2016-12-06T08:42:43.467Z,98.9
2016-12-06T08:43:23.995Z,98.8
2016-12-06T08:44:04.533Z,99.18
2016-12-06T08:44:45.068Z,98.43
2016-12-06T08:45:25.601Z,98.24
2016-12-06T08:46:06.144Z,98.71
2016-12-06T08:46:46.681Z,98.71
2016-12-06T08:47:27.252Z,98.52
2016-12-06T08:48:07.785Z,98.19
2016-12-06T08:48:48.358Z,98
2016-12-06T08:49:28.847Z,97.63
2016-12-06T08:50:09.387Z,97.63
2016-12-06T08:50:49.907Z,97.53
2016-12-06T08:51:30.458Z,97.15
2016-12-06T08:52:10.992Z,96.78
2016-12-06T08:52:51.525Z,96.49
2016-12-06T08:53:32.061Z,95.83
2016-12-06T08:54:12.601Z,96.4
2016-12-06T08:54:53.126Z,96.11
2016-12-06T08:55:33.639Z,95.26
2016-12-06T08:56:14.191Z,95.92
2016-12-06T08:56:54.702Z,96.02
2016-12-06T08:57:35.229Z,95.54
2016-12-06T08:58:15.759Z,95.07
2016-12-06T08:58:56.280Z,96.21
2016-12-06T08:59:36.821Z,95.92
2016-12-06T09:00:17.383Z,95.92
2016-12-06T09:00:57.928Z,96.11
2016-12-06T09:01:38.502Z,95.92
2016-12-06T09:02:19.065Z,96.02
2016-12-06T09:02:59.576Z,95.45
2016-12-06T09:03:40.111Z,95.83
2016-12-06T09:04:20.644Z,95.54
2016-12-06T09:05:01.199Z,95.17
2016-12-06T09:05:41.726Z,94.79
2016-12-06T09:06:22.266Z,94.51
2016-12-06T09:07:02.786Z,94.41
2016-12-06T09:07:43.292Z,95.17
2016-12-06T09:08:23.826Z,95.54
2016-12-06T09:09:04.331Z,94.89
2016-12-06T09:09:44.824Z,94.7
2016-12-06T09:10:25.334Z,94.93
2016-12-06T09:11:05.868Z,94.56
2016-12-06T09:11:46.396Z,93.99
2016-12-06T09:12:26.904Z,93.51
2016-12-06T09:13:07.423Z,93.28
2016-12-06T09:13:47.963Z,92.33
2016-12-06T09:14:28.496Z,91.77
2016-12-06T09:15:09.036Z,90.91
2016-12-06T09:15:49.569Z,90.34
2016-12-06T09:16:30.100Z,90.3
2016-12-06T09:17:10.628Z,89.16
2016-12-06T09:17:51.174Z,89.35
2016-12-06T09:18:31.699Z,88.97
2016-12-06T09:19:12.225Z,88.21
2016-12-06T09:19:52.757Z,88.02
2016-12-06T09:20:33.305Z,87.55